sensor_id;sensor_type;location;lat;lon;timestamp;P1;durP1;ratioP1;P2;durP2;ratioP2
18702;SDS011;9481;48.796;9.210;2022-07-11T00:02:10;2.03;;;0.80;;
18702;SDS011;9481;48.796;9.210;2022-07-11T00:04:37;1.43;;;0.77;;
18702;SDS011;9481;48.796;9.210;2022-07-11T00:07:03;0.70;;;0.70;;
18702;SDS011;9481;48.796;9.210;2022-07-11T00:09:30;1.00;;;0.80;;
18702;SDS011;9481;48.796;9.210;2022-07-11T00:11:56;1.00;;;0.80;;
18702;SDS011;9481;48.796;9.210;2022-07-11T00:14:23;1.10;;;1.00;;
18702;SDS011;9481;48.796;9.210;2022-07-11T00:16:49;0.93;;;0.90;;
18702;SDS011;9481;48.796;9.210;2022-07-11T00:19:20;1.37;;;1.00;;
18702;SDS011;9481;48.796;9.210;2022-07-11T00:21:47;0.67;;;0.67;;
18702;SDS011;9481;48.796;9.210;2022-07-11T00:24:14;1.23;;;0.90;;
18702;SDS011;9481;48.796;9.210;2022-07-11T00:26:42;1.43;;;0.90;;
18702;SDS011;9481;48.796;9.210;2022-07-11T00:29:08;2.90;;;1.07;;
18702;SDS011;9481;48.796;9.210;2022-07-11T00:31:34;1.87;;;0.80;;
18702;SDS011;9481;48.796;9.210;2022-07-11T00:34:00;0.90;;;0.70;;
18702;SDS011;9481;48.796;9.210;2022-07-11T00:36:26;0.77;;;0.70;;
18702;SDS011;9481;48.796;9.210;2022-07-11T00:38:51;0.83;;;0.60;;
18702;SDS011;9481;48.796;9.210;2022-07-11T00:41:17;3.10;;;1.00;;
18702;SDS011;9481;48.796;9.210;2022-07-11T00:43:49;3.10;;;0.73;;
18702;SDS011;9481;48.796;9.210;2022-07-11T00:46:24;0.93;;;0.93;;
18702;SDS011;9481;48.796;9.210;2022-07-11T00:48:52;2.80;;;1.10;;
18702;SDS011;9481;48.796;9.210;2022-07-11T00:51:18;1.10;;;0.70;;
18702;SDS011;9481;48.796;9.210;2022-07-11T00:53:50;1.20;;;0.70;;
18702;SDS011;9481;48.796;9.210;2022-07-11T00:56:25;4.37;;;0.90;;
18702;SDS011;9481;48.796;9.210;2022-07-11T00:58:54;2.23;;;0.80;;
18702;SDS011;9481;48.796;9.210;2022-07-11T01:01:22;0.60;;;0.60;;
18702;SDS011;9481;48.796;9.210;2022-07-11T01:03:48;2.00;;;0.87;;
18702;SDS011;9481;48.796;9.210;2022-07-11T01:06:14;1.60;;;0.90;;
18702;SDS011;9481;48.796;9.210;2022-07-11T01:08:40;1.47;;;0.80;;
18702;SDS011;9481;48.796;9.210;2022-07-11T01:11:09;0.90;;;0.90;;
18702;SDS011;9481;48.796;9.210;2022-07-11T01:13:39;1.30;;;1.00;;
18702;SDS011;9481;48.796;9.210;2022-07-11T01:16:09;3.00;;;1.10;;
18702;SDS011;9481;48.796;9.210;2022-07-11T01:18:40;2.17;;;0.87;;
18702;SDS011;9481;48.796;9.210;2022-07-11T01:24:00;1.23;;;0.70;;
18702;SDS011;9481;48.796;9.210;2022-07-11T01:26:27;1.60;;;1.00;;
18702;SDS011;9481;48.796;9.210;2022-07-11T01:28:54;2.90;;;1.00;;
18702;SDS011;9481;48.796;9.210;2022-07-11T01:31:30;1.00;;;0.90;;
18702;SDS011;9481;48.796;9.210;2022-07-11T01:33:56;0.80;;;0.70;;
18702;SDS011;9481;48.796;9.210;2022-07-11T01:36:23;1.40;;;0.90;;
18702;SDS011;9481;48.796;9.210;2022-07-11T01:38:48;0.97;;;0.90;;
18702;SDS011;9481;48.796;9.210;2022-07-11T01:41:14;1.20;;;0.80;;
18702;SDS011;9481;48.796;9.210;2022-07-11T01:43:40;2.20;;;1.30;;
18702;SDS011;9481;48.796;9.210;2022-07-11T01:46:06;1.33;;;1.20;;
18702;SDS011;9481;48.796;9.210;2022-07-11T01:48:31;1.37;;;1.00;;
18702;SDS011;9481;48.796;9.210;2022-07-11T01:50:57;1.90;;;1.10;;
18702;SDS011;9481;48.796;9.210;2022-07-11T01:53:23;1.43;;;1.33;;
18702;SDS011;9481;48.796;9.210;2022-07-11T01:55:49;1.20;;;1.10;;
18702;SDS011;9481;48.796;9.210;2022-07-11T01:58:16;1.40;;;1.10;;
18702;SDS011;9481;48.796;9.210;2022-07-11T02:00:43;4.10;;;1.23;;
18702;SDS011;9481;48.796;9.210;2022-07-11T02:03:08;1.20;;;1.10;;
18702;SDS011;9481;48.796;9.210;2022-07-11T02:05:34;1.77;;;1.50;;
18702;SDS011;9481;48.796;9.210;2022-07-11T02:08:02;1.40;;;1.20;;
18702;SDS011;9481;48.796;9.210;2022-07-11T02:10:44;2.20;;;1.00;;
18702;SDS011;9481;48.796;9.210;2022-07-11T02:13:13;1.80;;;1.20;;
18702;SDS011;9481;48.796;9.210;2022-07-11T02:15:42;1.47;;;1.20;;
18702;SDS011;9481;48.796;9.210;2022-07-11T02:18:09;1.80;;;1.10;;
18702;SDS011;9481;48.796;9.210;2022-07-11T02:20:36;1.87;;;1.20;;
18702;SDS011;9481;48.796;9.210;2022-07-11T02:23:04;1.20;;;1.10;;
18702;SDS011;9481;48.796;9.210;2022-07-11T02:25:30;1.63;;;1.10;;
18702;SDS011;9481;48.796;9.210;2022-07-11T02:27:57;1.60;;;1.30;;
18702;SDS011;9481;48.796;9.210;2022-07-11T02:30:23;1.30;;;1.20;;
18702;SDS011;9481;48.796;9.210;2022-07-11T02:32:50;1.40;;;1.13;;
18702;SDS011;9481;48.796;9.210;2022-07-11T02:35:16;1.40;;;1.30;;
18702;SDS011;9481;48.796;9.210;2022-07-11T02:37:43;1.07;;;1.00;;
18702;SDS011;9481;48.796;9.210;2022-07-11T02:40:09;1.60;;;1.10;;
18702;SDS011;9481;48.796;9.210;2022-07-11T02:42:35;1.67;;;1.00;;
18702;SDS011;9481;48.796;9.210;2022-07-11T02:45:02;2.73;;;1.27;;
18702;SDS011;9481;48.796;9.210;2022-07-11T02:47:32;4.17;;;1.30;;
18702;SDS011;9481;48.796;9.210;2022-07-11T02:49:57;2.07;;;1.50;;
18702;SDS011;9481;48.796;9.210;2022-07-11T02:52:23;1.20;;;1.10;;
18702;SDS011;9481;48.796;9.210;2022-07-11T02:54:49;2.00;;;1.30;;
18702;SDS011;9481;48.796;9.210;2022-07-11T02:57:14;1.53;;;1.07;;
18702;SDS011;9481;48.796;9.210;2022-07-11T02:59:40;1.73;;;1.10;;
18702;SDS011;9481;48.796;9.210;2022-07-11T03:02:06;1.80;;;1.30;;
18702;SDS011;9481;48.796;9.210;2022-07-11T03:04:32;2.80;;;1.10;;
18702;SDS011;9481;48.796;9.210;2022-07-11T03:06:58;1.33;;;1.17;;
18702;SDS011;9481;48.796;9.210;2022-07-11T03:09:24;2.37;;;1.20;;
18702;SDS011;9481;48.796;9.210;2022-07-11T03:11:51;1.53;;;1.23;;
18702;SDS011;9481;48.796;9.210;2022-07-11T03:14:17;1.50;;;1.40;;
18702;SDS011;9481;48.796;9.210;2022-07-11T03:16:43;1.97;;;1.30;;
18702;SDS011;9481;48.796;9.210;2022-07-11T03:19:09;1.37;;;1.27;;
18702;SDS011;9481;48.796;9.210;2022-07-11T03:21:35;1.47;;;1.10;;
18702;SDS011;9481;48.796;9.210;2022-07-11T03:24:00;1.77;;;1.20;;
18702;SDS011;9481;48.796;9.210;2022-07-11T03:26:28;1.63;;;1.27;;
18702;SDS011;9481;48.796;9.210;2022-07-11T03:28:53;2.10;;;1.20;;
18702;SDS011;9481;48.796;9.210;2022-07-11T03:31:19;1.40;;;1.30;;
18702;SDS011;9481;48.796;9.210;2022-07-11T03:33:45;1.30;;;1.20;;
18702;SDS011;9481;48.796;9.210;2022-07-11T03:36:10;1.40;;;1.30;;
18702;SDS011;9481;48.796;9.210;2022-07-11T03:38:36;1.47;;;1.37;;
18702;SDS011;9481;48.796;9.210;2022-07-11T03:41:03;1.63;;;1.30;;
18702;SDS011;9481;48.796;9.210;2022-07-11T03:43:29;1.47;;;1.37;;
18702;SDS011;9481;48.796;9.210;2022-07-11T03:45:56;3.30;;;1.40;;
18702;SDS011;9481;48.796;9.210;2022-07-11T03:48:22;1.60;;;1.37;;
18702;SDS011;9481;48.796;9.210;2022-07-11T03:50:48;1.70;;;1.60;;
18702;SDS011;9481;48.796;9.210;2022-07-11T03:53:14;1.80;;;1.40;;
18702;SDS011;9481;48.796;9.210;2022-07-11T03:55:40;1.93;;;1.60;;
18702;SDS011;9481;48.796;9.210;2022-07-11T03:58:10;1.90;;;1.70;;
18702;SDS011;9481;48.796;9.210;2022-07-11T04:00:36;1.53;;;1.43;;
18702;SDS011;9481;48.796;9.210;2022-07-11T04:03:02;2.10;;;1.70;;
18702;SDS011;9481;48.796;9.210;2022-07-11T04:05:28;2.90;;;1.63;;
18702;SDS011;9481;48.796;9.210;2022-07-11T04:07:53;2.17;;;1.70;;
18702;SDS011;9481;48.796;9.210;2022-07-11T04:10:19;2.17;;;1.93;;
18702;SDS011;9481;48.796;9.210;2022-07-11T04:12:45;2.60;;;1.93;;
18702;SDS011;9481;48.796;9.210;2022-07-11T04:15:11;2.53;;;1.97;;
18702;SDS011;9481;48.796;9.210;2022-07-11T04:17:37;3.10;;;2.00;;
18702;SDS011;9481;48.796;9.210;2022-07-11T04:20:03;2.63;;;1.77;;
18702;SDS011;9481;48.796;9.210;2022-07-11T04:22:30;2.30;;;1.80;;
18702;SDS011;9481;48.796;9.210;2022-07-11T04:24:56;2.03;;;1.87;;
18702;SDS011;9481;48.796;9.210;2022-07-11T04:27:22;1.87;;;1.77;;
18702;SDS011;9481;48.796;9.210;2022-07-11T04:29:49;1.93;;;1.77;;
18702;SDS011;9481;48.796;9.210;2022-07-11T04:32:15;2.03;;;1.90;;
18702;SDS011;9481;48.796;9.210;2022-07-11T04:34:40;2.13;;;1.97;;
18702;SDS011;9481;48.796;9.210;2022-07-11T04:37:06;2.53;;;1.80;;
18702;SDS011;9481;48.796;9.210;2022-07-11T04:39:32;2.10;;;1.87;;
18702;SDS011;9481;48.796;9.210;2022-07-11T04:41:58;3.00;;;2.00;;
18702;SDS011;9481;48.796;9.210;2022-07-11T04:44:25;2.27;;;2.00;;
18702;SDS011;9481;48.796;9.210;2022-07-11T04:46:53;3.03;;;2.20;;
18702;SDS011;9481;48.796;9.210;2022-07-11T04:49:19;3.47;;;2.10;;
18702;SDS011;9481;48.796;9.210;2022-07-11T04:51:45;2.23;;;1.90;;
18702;SDS011;9481;48.796;9.210;2022-07-11T04:54:11;2.33;;;2.13;;
18702;SDS011;9481;48.796;9.210;2022-07-11T04:56:37;2.33;;;2.13;;
18702;SDS011;9481;48.796;9.210;2022-07-11T04:59:05;2.20;;;2.00;;
18702;SDS011;9481;48.796;9.210;2022-07-11T05:01:32;5.77;;;2.13;;
18702;SDS011;9481;48.796;9.210;2022-07-11T05:03:59;1.77;;;1.67;;
18702;SDS011;9481;48.796;9.210;2022-07-11T05:06:26;1.67;;;1.47;;
18702;SDS011;9481;48.796;9.210;2022-07-11T05:08:51;1.90;;;1.80;;
18702;SDS011;9481;48.796;9.210;2022-07-11T05:11:19;2.23;;;1.60;;
18702;SDS011;9481;48.796;9.210;2022-07-11T05:13:45;1.87;;;1.67;;
18702;SDS011;9481;48.796;9.210;2022-07-11T05:16:11;2.10;;;1.90;;
18702;SDS011;9481;48.796;9.210;2022-07-11T05:18:37;2.57;;;2.30;;
18702;SDS011;9481;48.796;9.210;2022-07-11T05:21:04;2.47;;;2.10;;
18702;SDS011;9481;48.796;9.210;2022-07-11T05:23:30;2.73;;;1.70;;
18702;SDS011;9481;48.796;9.210;2022-07-11T05:25:56;2.60;;;2.17;;
18702;SDS011;9481;48.796;9.210;2022-07-11T05:28:22;1.90;;;1.67;;
18702;SDS011;9481;48.796;9.210;2022-07-11T05:30:47;3.93;;;1.70;;
18702;SDS011;9481;48.796;9.210;2022-07-11T05:33:13;2.53;;;1.93;;
18702;SDS011;9481;48.796;9.210;2022-07-11T05:35:39;1.83;;;1.60;;
18702;SDS011;9481;48.796;9.210;2022-07-11T05:38:05;2.30;;;1.63;;
18702;SDS011;9481;48.796;9.210;2022-07-11T05:40:30;2.20;;;1.80;;
18702;SDS011;9481;48.796;9.210;2022-07-11T05:42:56;2.33;;;1.93;;
18702;SDS011;9481;48.796;9.210;2022-07-11T05:45:22;2.67;;;1.80;;
18702;SDS011;9481;48.796;9.210;2022-07-11T05:47:48;1.83;;;1.60;;
18702;SDS011;9481;48.796;9.210;2022-07-11T05:50:13;2.80;;;1.90;;
18702;SDS011;9481;48.796;9.210;2022-07-11T05:52:39;1.90;;;1.80;;
18702;SDS011;9481;48.796;9.210;2022-07-11T05:55:05;2.03;;;1.77;;
18702;SDS011;9481;48.796;9.210;2022-07-11T05:57:31;2.33;;;1.93;;
18702;SDS011;9481;48.796;9.210;2022-07-11T05:59:57;2.57;;;2.17;;
18702;SDS011;9481;48.796;9.210;2022-07-11T06:02:23;2.20;;;2.00;;
18702;SDS011;9481;48.796;9.210;2022-07-11T06:04:48;2.20;;;2.00;;
18702;SDS011;9481;48.796;9.210;2022-07-11T06:07:14;2.40;;;2.20;;
18702;SDS011;9481;48.796;9.210;2022-07-11T06:09:59;4.00;;;2.23;;
18702;SDS011;9481;48.796;9.210;2022-07-11T06:12:26;2.23;;;2.00;;
18702;SDS011;9481;48.796;9.210;2022-07-11T06:14:51;3.10;;;1.73;;
18702;SDS011;9481;48.796;9.210;2022-07-11T06:17:17;2.13;;;1.67;;
18702;SDS011;9481;48.796;9.210;2022-07-11T06:19:43;2.17;;;2.00;;
18702;SDS011;9481;48.796;9.210;2022-07-11T06:22:08;4.07;;;2.30;;
18702;SDS011;9481;48.796;9.210;2022-07-11T06:24:34;3.73;;;1.97;;
18702;SDS011;9481;48.796;9.210;2022-07-11T06:27:00;2.30;;;1.90;;
18702;SDS011;9481;48.796;9.210;2022-07-11T06:29:26;2.00;;;1.90;;
18702;SDS011;9481;48.796;9.210;2022-07-11T06:31:52;4.40;;;2.13;;
18702;SDS011;9481;48.796;9.210;2022-07-11T06:34:18;2.80;;;1.93;;
18702;SDS011;9481;48.796;9.210;2022-07-11T06:36:44;2.70;;;2.00;;
18702;SDS011;9481;48.796;9.210;2022-07-11T06:39:10;2.27;;;2.07;;
18702;SDS011;9481;48.796;9.210;2022-07-11T06:41:35;2.03;;;1.93;;
18702;SDS011;9481;48.796;9.210;2022-07-11T06:44:01;2.30;;;2.10;;
18702;SDS011;9481;48.796;9.210;2022-07-11T06:46:26;2.20;;;2.00;;
18702;SDS011;9481;48.796;9.210;2022-07-11T06:48:52;4.70;;;1.93;;
18702;SDS011;9481;48.796;9.210;2022-07-11T06:51:18;2.10;;;1.90;;
18702;SDS011;9481;48.796;9.210;2022-07-11T06:53:44;2.77;;;1.90;;
18702;SDS011;9481;48.796;9.210;2022-07-11T06:56:10;2.50;;;1.90;;
18702;SDS011;9481;48.796;9.210;2022-07-11T06:58:35;2.33;;;2.13;;
18702;SDS011;9481;48.796;9.210;2022-07-11T07:01:05;2.37;;;2.17;;
18702;SDS011;9481;48.796;9.210;2022-07-11T07:03:32;4.37;;;2.10;;
18702;SDS011;9481;48.796;9.210;2022-07-11T07:05:59;2.60;;;1.70;;
18702;SDS011;9481;48.796;9.210;2022-07-11T07:08:27;2.53;;;2.10;;
18702;SDS011;9481;48.796;9.210;2022-07-11T07:10:54;2.50;;;1.80;;
18702;SDS011;9481;48.796;9.210;2022-07-11T07:13:20;2.30;;;2.10;;
18702;SDS011;9481;48.796;9.210;2022-07-11T07:15:50;3.20;;;1.90;;
18702;SDS011;9481;48.796;9.210;2022-07-11T07:18:17;2.30;;;2.03;;
18702;SDS011;9481;48.796;9.210;2022-07-11T07:20:43;2.33;;;2.17;;
18702;SDS011;9481;48.796;9.210;2022-07-11T07:23:09;2.20;;;2.00;;
18702;SDS011;9481;48.796;9.210;2022-07-11T07:25:34;2.27;;;2.07;;
18702;SDS011;9481;48.796;9.210;2022-07-11T07:28:00;3.47;;;2.10;;
18702;SDS011;9481;48.796;9.210;2022-07-11T07:30:26;3.00;;;2.10;;
18702;SDS011;9481;48.796;9.210;2022-07-11T07:32:51;2.40;;;1.90;;
18702;SDS011;9481;48.796;9.210;2022-07-11T07:35:17;3.40;;;2.10;;
18702;SDS011;9481;48.796;9.210;2022-07-11T07:37:43;2.10;;;1.90;;
18702;SDS011;9481;48.796;9.210;2022-07-11T07:40:08;2.00;;;1.90;;
18702;SDS011;9481;48.796;9.210;2022-07-11T07:42:34;2.17;;;1.80;;
18702;SDS011;9481;48.796;9.210;2022-07-11T07:45:00;1.70;;;1.60;;
18702;SDS011;9481;48.796;9.210;2022-07-11T07:47:26;2.70;;;1.70;;
18702;SDS011;9481;48.796;9.210;2022-07-11T07:49:53;1.87;;;1.70;;
18702;SDS011;9481;48.796;9.210;2022-07-11T07:52:19;2.07;;;1.80;;
18702;SDS011;9481;48.796;9.210;2022-07-11T07:54:44;2.03;;;1.83;;
18702;SDS011;9481;48.796;9.210;2022-07-11T07:57:10;1.93;;;1.73;;
18702;SDS011;9481;48.796;9.210;2022-07-11T07:59:36;2.40;;;1.47;;
18702;SDS011;9481;48.796;9.210;2022-07-11T08:02:01;1.73;;;1.40;;
18702;SDS011;9481;48.796;9.210;2022-07-11T08:04:27;1.57;;;1.40;;
18702;SDS011;9481;48.796;9.210;2022-07-11T08:06:54;1.40;;;1.10;;
18702;SDS011;9481;48.796;9.210;2022-07-11T08:09:21;1.23;;;1.13;;
18702;SDS011;9481;48.796;9.210;2022-07-11T08:11:47;4.40;;;1.27;;
18702;SDS011;9481;48.796;9.210;2022-07-11T08:14:13;0.90;;;0.90;;
18702;SDS011;9481;48.796;9.210;2022-07-11T08:16:39;2.37;;;1.10;;
18702;SDS011;9481;48.796;9.210;2022-07-11T08:19:06;1.40;;;1.10;;
18702;SDS011;9481;48.796;9.210;2022-07-11T08:21:32;2.40;;;1.17;;
18702;SDS011;9481;48.796;9.210;2022-07-11T08:23:59;1.00;;;0.90;;
18702;SDS011;9481;48.796;9.210;2022-07-11T08:26:25;0.90;;;0.90;;
18702;SDS011;9481;48.796;9.210;2022-07-11T08:28:51;2.57;;;1.20;;
18702;SDS011;9481;48.796;9.210;2022-07-11T08:31:17;0.70;;;0.70;;
18702;SDS011;9481;48.796;9.210;2022-07-11T08:33:43;1.33;;;0.83;;
18702;SDS011;9481;48.796;9.210;2022-07-11T08:36:09;0.97;;;0.90;;
18702;SDS011;9481;48.796;9.210;2022-07-11T08:38:35;1.67;;;0.90;;
18702;SDS011;9481;48.796;9.210;2022-07-11T08:41:02;0.93;;;0.70;;
18702;SDS011;9481;48.796;9.210;2022-07-11T08:43:29;0.73;;;0.73;;
18702;SDS011;9481;48.796;9.210;2022-07-11T08:45:55;1.13;;;0.60;;
18702;SDS011;9481;48.796;9.210;2022-07-11T08:48:22;0.73;;;0.73;;
18702;SDS011;9481;48.796;9.210;2022-07-11T08:50:49;0.97;;;0.60;;
18702;SDS011;9481;48.796;9.210;2022-07-11T08:53:15;0.50;;;0.50;;
18702;SDS011;9481;48.796;9.210;2022-07-11T08:55:42;1.83;;;0.70;;
18702;SDS011;9481;48.796;9.210;2022-07-11T08:58:08;0.80;;;0.80;;
18702;SDS011;9481;48.796;9.210;2022-07-11T09:00:35;0.90;;;0.80;;
18702;SDS011;9481;48.796;9.210;2022-07-11T09:03:04;0.60;;;0.60;;
18702;SDS011;9481;48.796;9.210;2022-07-11T09:05:31;0.60;;;0.60;;
18702;SDS011;9481;48.796;9.210;2022-07-11T09:07:57;0.90;;;0.80;;
18702;SDS011;9481;48.796;9.210;2022-07-11T09:10:23;1.63;;;0.73;;
18702;SDS011;9481;48.796;9.210;2022-07-11T09:13:05;0.60;;;0.60;;
18702;SDS011;9481;48.796;9.210;2022-07-11T09:15:45;1.07;;;0.90;;
18702;SDS011;9481;48.796;9.210;2022-07-11T09:18:28;1.27;;;0.70;;
18702;SDS011;9481;48.796;9.210;2022-07-11T09:21:03;0.70;;;0.70;;
18702;SDS011;9481;48.796;9.210;2022-07-11T09:23:51;6.43;;;1.00;;
18702;SDS011;9481;48.796;9.210;2022-07-11T09:26:41;1.00;;;0.70;;
18702;SDS011;9481;48.796;9.210;2022-07-11T09:29:10;0.73;;;0.73;;
18702;SDS011;9481;48.796;9.210;2022-07-11T09:31:43;0.70;;;0.70;;
18702;SDS011;9481;48.796;9.210;2022-07-11T09:36:42;0.90;;;0.90;;
18702;SDS011;9481;48.796;9.210;2022-07-11T09:39:17;1.03;;;0.90;;
18702;SDS011;9481;48.796;9.210;2022-07-11T09:41:46;0.97;;;0.80;;
18702;SDS011;9481;48.796;9.210;2022-07-11T09:44:17;2.37;;;0.90;;
18702;SDS011;9481;48.796;9.210;2022-07-11T09:47:11;1.00;;;0.90;;
18702;SDS011;9481;48.796;9.210;2022-07-11T09:49:45;1.30;;;0.90;;
18702;SDS011;9481;48.796;9.210;2022-07-11T09:52:12;2.37;;;0.90;;
18702;SDS011;9481;48.796;9.210;2022-07-11T09:57:31;0.70;;;0.70;;
18702;SDS011;9481;48.796;9.210;2022-07-11T09:59:59;1.97;;;0.87;;
18702;SDS011;9481;48.796;9.210;2022-07-11T10:02:26;0.80;;;0.80;;
18702;SDS011;9481;48.796;9.210;2022-07-11T10:04:52;1.43;;;1.03;;
18702;SDS011;9481;48.796;9.210;2022-07-11T10:07:18;0.70;;;0.70;;
18702;SDS011;9481;48.796;9.210;2022-07-11T10:09:44;1.00;;;0.70;;
18702;SDS011;9481;48.796;9.210;2022-07-11T10:12:10;1.33;;;0.90;;
18702;SDS011;9481;48.796;9.210;2022-07-11T10:14:36;0.80;;;0.80;;
18702;SDS011;9481;48.796;9.210;2022-07-11T10:17:25;2.20;;;0.80;;
18702;SDS011;9481;48.796;9.210;2022-07-11T10:20:09;1.20;;;0.90;;
18702;SDS011;9481;48.796;9.210;2022-07-11T10:23:02;2.30;;;0.70;;
18702;SDS011;9481;48.796;9.210;2022-07-11T10:25:35;0.97;;;0.90;;
18702;SDS011;9481;48.796;9.210;2022-07-11T10:30:39;0.60;;;0.60;;
18702;SDS011;9481;48.796;9.210;2022-07-11T10:33:13;0.80;;;0.80;;
18702;SDS011;9481;48.796;9.210;2022-07-11T10:35:44;2.77;;;0.73;;
18702;SDS011;9481;48.796;9.210;2022-07-11T10:38:12;1.03;;;0.83;;
18702;SDS011;9481;48.796;9.210;2022-07-11T10:45:55;1.13;;;0.87;;
18702;SDS011;9481;48.796;9.210;2022-07-11T10:48:23;0.83;;;0.83;;
18702;SDS011;9481;48.796;9.210;2022-07-11T10:54:24;0.80;;;0.80;;
18702;SDS011;9481;48.796;9.210;2022-07-11T11:00:03;0.70;;;0.70;;
18702;SDS011;9481;48.796;9.210;2022-07-11T11:05:39;1.10;;;1.00;;
18702;SDS011;9481;48.796;9.210;2022-07-11T11:13:45;0.70;;;0.70;;
18702;SDS011;9481;48.796;9.210;2022-07-11T11:16:18;1.40;;;1.00;;
18702;SDS011;9481;48.796;9.210;2022-07-11T11:18:49;0.80;;;0.80;;
18702;SDS011;9481;48.796;9.210;2022-07-11T11:21:16;0.90;;;0.90;;
18702;SDS011;9481;48.796;9.210;2022-07-11T11:23:59;0.93;;;0.93;;
18702;SDS011;9481;48.796;9.210;2022-07-11T11:26:46;1.43;;;0.93;;
18702;SDS011;9481;48.796;9.210;2022-07-11T11:29:25;0.83;;;0.80;;
18702;SDS011;9481;48.796;9.210;2022-07-11T11:31:54;1.03;;;0.90;;
18702;SDS011;9481;48.796;9.210;2022-07-11T11:34:23;1.43;;;1.00;;
18702;SDS011;9481;48.796;9.210;2022-07-11T11:36:54;0.80;;;0.80;;
18702;SDS011;9481;48.796;9.210;2022-07-11T11:39:23;1.10;;;1.00;;
18702;SDS011;9481;48.796;9.210;2022-07-11T11:42:05;1.03;;;1.00;;
18702;SDS011;9481;48.796;9.210;2022-07-11T11:47:14;1.30;;;1.10;;
18702;SDS011;9481;48.796;9.210;2022-07-11T11:49:44;1.70;;;0.93;;
18702;SDS011;9481;48.796;9.210;2022-07-11T11:52:12;0.90;;;0.90;;
18702;SDS011;9481;48.796;9.210;2022-07-11T11:54:38;1.07;;;1.07;;
18702;SDS011;9481;48.796;9.210;2022-07-11T11:57:13;1.20;;;1.10;;
18702;SDS011;9481;48.796;9.210;2022-07-11T11:59:41;0.80;;;0.80;;
18702;SDS011;9481;48.796;9.210;2022-07-11T12:02:08;0.80;;;0.80;;
18702;SDS011;9481;48.796;9.210;2022-07-11T12:04:35;1.27;;;1.17;;
18702;SDS011;9481;48.796;9.210;2022-07-11T12:07:02;1.00;;;1.00;;
18702;SDS011;9481;48.796;9.210;2022-07-11T12:09:30;1.20;;;1.10;;
18702;SDS011;9481;48.796;9.210;2022-07-11T12:12:11;1.20;;;1.10;;
18702;SDS011;9481;48.796;9.210;2022-07-11T12:14:56;1.60;;;1.13;;
18702;SDS011;9481;48.796;9.210;2022-07-11T12:17:26;1.37;;;1.07;;
18702;SDS011;9481;48.796;9.210;2022-07-11T12:19:54;1.30;;;1.20;;
18702;SDS011;9481;48.796;9.210;2022-07-11T12:22:21;1.20;;;1.10;;
18702;SDS011;9481;48.796;9.210;2022-07-11T12:24:50;1.10;;;1.00;;
18702;SDS011;9481;48.796;9.210;2022-07-11T12:27:21;1.27;;;1.10;;
18702;SDS011;9481;48.796;9.210;2022-07-11T12:29:50;1.43;;;1.00;;
18702;SDS011;9481;48.796;9.210;2022-07-11T12:32:19;0.93;;;0.93;;
18702;SDS011;9481;48.796;9.210;2022-07-11T12:34:49;1.20;;;1.00;;
18702;SDS011;9481;48.796;9.210;2022-07-11T12:37:16;2.20;;;1.10;;
18702;SDS011;9481;48.796;9.210;2022-07-11T12:39:54;1.67;;;1.10;;
18702;SDS011;9481;48.796;9.210;2022-07-11T12:42:32;2.27;;;0.97;;
18702;SDS011;9481;48.796;9.210;2022-07-11T12:45:06;2.60;;;1.10;;
18702;SDS011;9481;48.796;9.210;2022-07-11T12:52:50;1.13;;;1.03;;
18702;SDS011;9481;48.796;9.210;2022-07-11T12:55:27;1.30;;;1.20;;
18702;SDS011;9481;48.796;9.210;2022-07-11T13:00:35;1.07;;;0.97;;
18702;SDS011;9481;48.796;9.210;2022-07-11T13:03:07;1.83;;;1.10;;
18702;SDS011;9481;48.796;9.210;2022-07-11T13:05:46;1.27;;;1.17;;
18702;SDS011;9481;48.796;9.210;2022-07-11T13:08:22;1.73;;;1.00;;
18702;SDS011;9481;48.796;9.210;2022-07-11T13:11:13;1.50;;;1.40;;
18702;SDS011;9481;48.796;9.210;2022-07-11T13:13:41;1.40;;;1.27;;
18702;SDS011;9481;48.796;9.210;2022-07-11T13:16:08;1.40;;;1.30;;
18702;SDS011;9481;48.796;9.210;2022-07-11T13:18:36;1.30;;;1.20;;
18702;SDS011;9481;48.796;9.210;2022-07-11T13:21:02;1.30;;;1.20;;
18702;SDS011;9481;48.796;9.210;2022-07-11T13:23:29;1.27;;;1.17;;
18702;SDS011;9481;48.796;9.210;2022-07-11T13:25:56;1.20;;;1.10;;
18702;SDS011;9481;48.796;9.210;2022-07-11T13:28:22;1.30;;;1.20;;
18702;SDS011;9481;48.796;9.210;2022-07-11T13:30:49;1.57;;;1.20;;
18702;SDS011;9481;48.796;9.210;2022-07-11T13:33:16;1.33;;;1.10;;
18702;SDS011;9481;48.796;9.210;2022-07-11T13:35:43;1.97;;;1.20;;
18702;SDS011;9481;48.796;9.210;2022-07-11T13:38:10;1.37;;;1.27;;
18702;SDS011;9481;48.796;9.210;2022-07-11T13:40:36;1.13;;;1.03;;
18702;SDS011;9481;48.796;9.210;2022-07-11T13:43:02;1.83;;;1.20;;
18702;SDS011;9481;48.796;9.210;2022-07-11T13:45:28;1.20;;;1.10;;
18702;SDS011;9481;48.796;9.210;2022-07-11T13:47:54;1.20;;;1.17;;
18702;SDS011;9481;48.796;9.210;2022-07-11T13:50:20;2.27;;;1.20;;
18702;SDS011;9481;48.796;9.210;2022-07-11T13:52:46;1.90;;;1.27;;
18702;SDS011;9481;48.796;9.210;2022-07-11T13:55:17;1.50;;;1.40;;
18702;SDS011;9481;48.796;9.210;2022-07-11T13:57:47;1.63;;;1.30;;
18702;SDS011;9481;48.796;9.210;2022-07-11T14:00:18;1.67;;;1.40;;
18702;SDS011;9481;48.796;9.210;2022-07-11T14:02:45;2.70;;;1.43;;
18702;SDS011;9481;48.796;9.210;2022-07-11T14:05:12;1.40;;;1.30;;
18702;SDS011;9481;48.796;9.210;2022-07-11T14:07:39;1.87;;;1.53;;
18702;SDS011;9481;48.796;9.210;2022-07-11T14:10:06;2.90;;;1.30;;
18702;SDS011;9481;48.796;9.210;2022-07-11T14:12:33;1.23;;;1.20;;
18702;SDS011;9481;48.796;9.210;2022-07-11T14:15:00;1.40;;;1.30;;
18702;SDS011;9481;48.796;9.210;2022-07-11T14:17:26;1.33;;;1.23;;
18702;SDS011;9481;48.796;9.210;2022-07-11T14:19:53;1.53;;;1.43;;
18702;SDS011;9481;48.796;9.210;2022-07-11T14:22:19;3.00;;;1.40;;
18702;SDS011;9481;48.796;9.210;2022-07-11T14:24:45;1.33;;;1.23;;
18702;SDS011;9481;48.796;9.210;2022-07-11T14:27:11;1.57;;;1.40;;
18702;SDS011;9481;48.796;9.210;2022-07-11T14:29:39;2.93;;;1.60;;
18702;SDS011;9481;48.796;9.210;2022-07-11T14:32:09;2.93;;;1.50;;
18702;SDS011;9481;48.796;9.210;2022-07-11T14:34:38;1.60;;;1.50;;
18702;SDS011;9481;48.796;9.210;2022-07-11T14:37:04;1.60;;;1.50;;
18702;SDS011;9481;48.796;9.210;2022-07-11T14:39:30;5.23;;;1.80;;
18702;SDS011;9481;48.796;9.210;2022-07-11T14:41:57;1.57;;;1.30;;
18702;SDS011;9481;48.796;9.210;2022-07-11T14:44:25;2.77;;;1.13;;
18702;SDS011;9481;48.796;9.210;2022-07-11T14:46:51;1.93;;;1.60;;
18702;SDS011;9481;48.796;9.210;2022-07-11T14:49:17;2.70;;;1.60;;
18702;SDS011;9481;48.796;9.210;2022-07-11T14:51:43;3.17;;;1.50;;
18702;SDS011;9481;48.796;9.210;2022-07-11T14:54:09;2.53;;;1.60;;
18702;SDS011;9481;48.796;9.210;2022-07-11T14:56:35;1.43;;;1.33;;
18702;SDS011;9481;48.796;9.210;2022-07-11T14:59:02;2.37;;;1.80;;
18702;SDS011;9481;48.796;9.210;2022-07-11T15:01:29;2.07;;;1.63;;
18702;SDS011;9481;48.796;9.210;2022-07-11T15:03:56;2.30;;;1.43;;
18702;SDS011;9481;48.796;9.210;2022-07-11T15:06:22;2.33;;;1.50;;
18702;SDS011;9481;48.796;9.210;2022-07-11T15:09:07;1.57;;;1.47;;
18702;SDS011;9481;48.796;9.210;2022-07-11T15:11:52;1.73;;;1.63;;
18702;SDS011;9481;48.796;9.210;2022-07-11T15:14:36;2.20;;;1.50;;
18702;SDS011;9481;48.796;9.210;2022-07-11T15:17:01;2.40;;;1.40;;
18702;SDS011;9481;48.796;9.210;2022-07-11T15:19:27;3.97;;;1.50;;
18702;SDS011;9481;48.796;9.210;2022-07-11T15:21:53;1.50;;;1.40;;
18702;SDS011;9481;48.796;9.210;2022-07-11T15:24:19;3.00;;;1.60;;
18702;SDS011;9481;48.796;9.210;2022-07-11T15:26:45;1.97;;;1.50;;
18702;SDS011;9481;48.796;9.210;2022-07-11T15:29:10;3.03;;;1.60;;
18702;SDS011;9481;48.796;9.210;2022-07-11T15:31:36;1.50;;;1.40;;
18702;SDS011;9481;48.796;9.210;2022-07-11T15:34:02;2.60;;;1.60;;
18702;SDS011;9481;48.796;9.210;2022-07-11T15:36:28;1.90;;;1.70;;
18702;SDS011;9481;48.796;9.210;2022-07-11T15:38:55;2.07;;;1.50;;
18702;SDS011;9481;48.796;9.210;2022-07-11T15:41:21;2.20;;;1.80;;
18702;SDS011;9481;48.796;9.210;2022-07-11T15:43:46;3.53;;;1.97;;
18702;SDS011;9481;48.796;9.210;2022-07-11T15:46:12;2.03;;;1.83;;
18702;SDS011;9481;48.796;9.210;2022-07-11T15:48:38;1.40;;;1.30;;